Tiona, New York
Current Conditions -  °F | °C
As of 3:53 PM on Tuesday 25 Nov 2014 (Local Time) from KBGM Reporting Station
Clear Clear  
Wind Chill:   Ceiling: Unl
Heat Index:   Visibility: 10mi
Dew Point: -4°   Wind: 16mph
Humidity: 44%   Direction: 250°WSW
Pressure: 29.93"   Gusts: NA
Location:  42.2341°N, 76.1713°W
Report Text: KBGM 252053Z 25014KT 10SM CLR 07/M04 A2993 RMK AO2 SLP143 T00721044 52006
Loading
Personal Weather Stations






























Interactive Weather Map New forecast layout! Learn more

10-Day Weather Forecast

Advertisements
Track Severe Weather on mobile